createdAt,value
2023-07-31T00:04:17.099Z,2.85
2023-07-31T00:09:19.540Z,2.95
2023-07-31T00:14:21.689Z,2.88
2023-07-31T00:19:24.304Z,3.13
2023-07-31T00:24:26.716Z,3.17
2023-07-31T00:29:29.014Z,3.83
2023-07-31T00:34:31.403Z,3.20
2023-07-31T00:39:35.254Z,3.13
2023-07-31T00:44:37.438Z,2.72
2023-07-31T00:49:39.718Z,3.28
2023-07-31T00:54:42.166Z,2.80
2023-07-31T00:59:44.860Z,3.60
2023-07-31T01:04:48.215Z,3.45
2023-07-31T01:10:06.139Z,3.03
2023-07-31T01:15:12.802Z,3.47
2023-07-31T01:20:20.249Z,3.30
2023-07-31T01:25:40.907Z,3.27
2023-07-31T01:30:49.199Z,3.35
2023-07-31T01:40:55.253Z,3.28
2023-07-31T01:45:57.512Z,3.08
2023-07-31T01:51:02.506Z,3.00
2023-07-31T01:56:04.888Z,3.03
2023-07-31T02:01:07.155Z,2.58
2023-07-31T02:06:09.455Z,3.25
2023-07-31T02:11:11.816Z,3.03
2023-07-31T02:16:14.152Z,2.67
2023-07-31T02:21:16.502Z,2.90
2023-07-31T02:26:18.774Z,3.00
2023-07-31T02:31:23.206Z,3.38
2023-07-31T02:36:25.671Z,3.30
2023-07-31T02:41:27.934Z,3.42
2023-07-31T02:46:30.858Z,3.55
2023-07-31T02:51:33.287Z,3.05
2023-07-31T02:56:35.636Z,3.65
2023-07-31T03:01:38.179Z,7.13
2023-07-31T03:06:40.895Z,3.70
2023-07-31T03:11:43.407Z,3.38
2023-07-31T03:16:45.635Z,3.47
2023-07-31T03:21:47.907Z,3.08
2023-07-31T03:26:50.230Z,3.63
2023-07-31T03:31:52.498Z,3.40
2023-07-31T03:36:54.768Z,3.67
2023-07-31T03:41:56.934Z,4.03
2023-07-31T03:46:59.248Z,4.68
2023-07-31T03:52:01.639Z,3.90
2023-07-31T03:57:04.049Z,4.07
2023-07-31T04:02:06.696Z,3.47
2023-07-31T04:07:08.943Z,3.80
2023-07-31T04:12:11.123Z,4.65
2023-07-31T04:17:13.361Z,4.57
2023-07-31T04:22:15.646Z,3.40
2023-07-31T04:27:17.839Z,3.30
2023-07-31T04:32:21.638Z,3.85
2023-07-31T04:37:23.949Z,4.38
2023-07-31T04:42:26.540Z,3.92
2023-07-31T04:47:28.792Z,4.15
2023-07-31T04:52:31.057Z,4.80
2023-07-31T04:57:33.275Z,4.68
2023-07-31T05:02:35.560Z,4.50
2023-07-31T05:07:38.356Z,5.20
2023-07-31T05:12:40.521Z,4.30
2023-07-31T05:17:42.691Z,5.60
2023-07-31T05:22:44.849Z,3.88
2023-07-31T05:27:47.026Z,4.65
2023-07-31T05:32:49.430Z,3.80
2023-07-31T05:37:51.711Z,4.45
2023-07-31T05:42:53.863Z,3.63
2023-07-31T05:47:56.016Z,4.85
2023-07-31T05:52:58.313Z,3.13
2023-07-31T05:58:01.432Z,3.70
2023-07-31T06:03:03.916Z,3.22
2023-07-31T06:08:06.153Z,3.45
2023-07-31T06:13:08.401Z,3.15
2023-07-31T06:18:11.833Z,3.53
2023-07-31T06:23:14.055Z,2.90
2023-07-31T06:28:16.276Z,3.15
2023-07-31T06:33:18.568Z,3.20
2023-07-31T06:38:27.621Z,3.13
2023-07-31T06:43:29.945Z,2.90
2023-07-31T06:48:32.181Z,3.53
2023-07-31T06:53:34.458Z,3.63
2023-07-31T06:58:36.610Z,3.10
2023-07-31T07:03:38.840Z,4.45
2023-07-31T07:08:40.999Z,3.30
2023-07-31T07:13:43.261Z,2.92
2023-07-31T07:18:58.367Z,3.20
2023-07-31T07:24:06.300Z,3.42
2023-07-31T07:29:09.438Z,3.17
2023-07-31T07:34:11.778Z,3.42
2023-07-31T07:39:14.032Z,3.22
2023-07-31T07:44:16.254Z,2.60
2023-07-31T07:49:18.418Z,3.13
2023-07-31T07:54:22.542Z,2.85
2023-07-31T07:59:24.873Z,3.25
2023-07-31T08:04:27.060Z,3.20
2023-07-31T08:09:29.289Z,4.25
2023-07-31T08:14:33.373Z,3.13
2023-07-31T08:19:35.971Z,2.88
2023-07-31T08:24:38.187Z,2.95
2023-07-31T08:29:40.589Z,3.28
2023-07-31T08:34:43.216Z,2.90
2023-07-31T08:39:45.354Z,2.28
2023-07-31T08:44:48.483Z,2.63
2023-07-31T08:49:52.858Z,2.60
2023-07-31T08:54:54.995Z,3.97
2023-07-31T08:59:59.112Z,3.28
2023-07-31T09:05:01.803Z,3.58
2023-07-31T09:10:05.300Z,2.70
2023-07-31T09:15:08.061Z,2.30
2023-07-31T09:20:21.369Z,2.72
2023-07-31T09:25:26.130Z,2.60
2023-07-31T09:30:28.944Z,2.70
2023-07-31T09:35:36.148Z,3.00
2023-07-31T09:40:40.683Z,2.55
2023-07-31T09:45:44.268Z,2.83
2023-07-31T09:50:48.429Z,2.88
2023-07-31T09:55:50.786Z,3.20
2023-07-31T10:00:53.083Z,3.10
2023-07-31T10:05:58.383Z,3.17
2023-07-31T10:11:02.170Z,3.15
2023-07-31T10:16:05.167Z,3.85
2023-07-31T10:21:07.895Z,3.75
2023-07-31T10:26:11.490Z,3.38
2023-07-31T10:31:14.917Z,3.20
2023-07-31T10:36:21.547Z,3.05
2023-07-31T10:41:33.329Z,3.65
2023-07-31T10:46:36.372Z,3.20
2023-07-31T10:51:38.781Z,2.90
2023-07-31T10:56:41.569Z,3.10
2023-07-31T11:02:04.149Z,3.25
2023-07-31T11:07:09.766Z,2.92
2023-07-31T11:12:13.331Z,2.53
2023-07-31T11:17:15.647Z,3.15
2023-07-31T11:22:19.953Z,2.85
2023-07-31T11:27:22.180Z,2.80
2023-07-31T11:32:26.149Z,3.88
2023-07-31T11:37:44.623Z,3.28
2023-07-31T11:42:47.029Z,3.08
2023-07-31T11:47:49.501Z,2.92
2023-07-31T11:52:56.621Z,3.13
2023-07-31T11:58:00.744Z,3.03
2023-07-31T12:03:03.204Z,3.30
2023-07-31T12:08:17.941Z,3.20
2023-07-31T12:13:29.600Z,2.88
2023-07-31T12:18:40.026Z,2.63
2023-07-31T12:23:43.979Z,3.35
2023-07-31T12:28:50.220Z,3.20
2023-07-31T12:33:56.030Z,3.10
2023-07-31T12:39:00.019Z,3.10
2023-07-31T12:49:28.057Z,2.95
2023-07-31T12:54:30.293Z,2.83
2023-07-31T12:59:32.460Z,2.75
2023-07-31T13:04:34.658Z,2.90
2023-07-31T13:09:38.602Z,2.55
2023-07-31T13:14:41.025Z,2.97
2023-07-31T13:19:44.638Z,2.75
2023-07-31T13:24:46.943Z,2.72
2023-07-31T13:29:58.696Z,3.13
2023-07-31T13:35:03.770Z,2.78
2023-07-31T13:40:06.783Z,2.70
2023-07-31T13:45:09.372Z,2.70
2023-07-31T13:50:11.634Z,2.75
2023-07-31T13:55:14.601Z,2.70
2023-07-31T14:00:17.319Z,2.40
2023-07-31T14:05:22.649Z,3.03
2023-07-31T14:10:25.672Z,2.30
2023-07-31T14:15:28.336Z,2.55
2023-07-31T14:20:31.662Z,2.58
2023-07-31T14:25:34.025Z,2.42
2023-07-31T14:30:36.568Z,2.70
2023-07-31T14:35:38.973Z,3.08
2023-07-31T14:40:41.316Z,3.10
2023-07-31T14:45:43.761Z,2.75
2023-07-31T14:50:46.468Z,2.75
2023-07-31T14:55:48.760Z,2.70
2023-07-31T15:00:51.059Z,2.63
2023-07-31T15:05:53.384Z,2.80
2023-07-31T15:10:58.750Z,2.90
2023-07-31T15:16:01.438Z,2.90
2023-07-31T15:21:03.771Z,2.90
2023-07-31T15:26:06.166Z,3.10
2023-07-31T15:31:08.441Z,2.70
2023-07-31T15:36:10.738Z,2.80
2023-07-31T15:41:13.098Z,3.25
2023-07-31T15:46:15.650Z,2.75
2023-07-31T15:51:18.032Z,3.00
2023-07-31T15:56:20.594Z,3.00
2023-07-31T16:01:22.995Z,3.35
2023-07-31T16:06:25.335Z,3.28
2023-07-31T16:11:28.714Z,3.30
2023-07-31T16:16:31.062Z,3.47
2023-07-31T16:21:33.444Z,3.72
2023-07-31T16:26:39.034Z,3.47
2023-07-31T16:36:59.436Z,3.80
2023-07-31T16:42:01.889Z,3.58
2023-07-31T16:47:04.233Z,4.25
2023-07-31T16:52:09.081Z,4.53
2023-07-31T16:57:14.231Z,4.65
2023-07-31T17:02:19.600Z,4.43
2023-07-31T17:07:22.689Z,4.60
2023-07-31T17:12:28.014Z,4.35
2023-07-31T17:17:30.513Z,4.57
2023-07-31T17:22:47.187Z,4.35
2023-07-31T17:27:53.561Z,4.22
2023-07-31T17:32:56.313Z,4.90
2023-07-31T17:38:01.427Z,4.95
2023-07-31T17:43:06.888Z,5.07
2023-07-31T17:48:27.684Z,4.50
2023-07-31T17:53:31.465Z,4.55
2023-07-31T17:58:35.874Z,5.13
2023-07-31T18:03:38.303Z,5.00
2023-07-31T18:08:40.768Z,4.15
2023-07-31T18:13:42.977Z,4.32
2023-07-31T18:18:45.278Z,4.78
2023-07-31T18:23:47.634Z,4.90
2023-07-31T18:28:50.410Z,4.80
2023-07-31T18:33:52.878Z,4.35
2023-07-31T18:38:57.932Z,3.90
2023-07-31T18:44:00.500Z,4.45
2023-07-31T18:49:03.037Z,4.53
2023-07-31T18:54:07.629Z,4.63
2023-07-31T18:59:09.852Z,4.78
2023-07-31T19:04:12.462Z,4.72
2023-07-31T19:09:15.387Z,7.57
2023-07-31T19:14:20.045Z,5.07
2023-07-31T19:19:22.553Z,4.60
2023-07-31T19:24:29.666Z,4.72
2023-07-31T19:29:39.469Z,5.03
2023-07-31T19:34:43.500Z,4.32
2023-07-31T19:39:45.896Z,4.47
2023-07-31T19:44:48.248Z,4.60
2023-07-31T19:49:50.660Z,3.78
2023-07-31T19:54:53.894Z,4.15
2023-07-31T19:59:56.158Z,3.53
2023-07-31T20:04:58.516Z,3.72
2023-07-31T20:10:02.247Z,3.60
2023-07-31T20:15:06.054Z,3.25
2023-07-31T20:20:09.161Z,3.30
2023-07-31T20:25:11.823Z,3.60
2023-07-31T20:30:15.178Z,3.25
2023-07-31T20:35:21.308Z,3.13
2023-07-31T20:40:24.563Z,3.05
2023-07-31T20:45:30.387Z,3.33
2023-07-31T20:50:33.831Z,3.28
2023-07-31T20:55:39.632Z,2.70
2023-07-31T21:00:45.253Z,3.15
2023-07-31T21:05:51.936Z,2.70
2023-07-31T21:10:57.493Z,2.70
2023-07-31T21:16:03.137Z,2.97
2023-07-31T21:21:05.472Z,2.60
2023-07-31T21:26:07.894Z,2.75
2023-07-31T21:31:14.406Z,2.78
2023-07-31T21:36:17.519Z,2.60
2023-07-31T21:41:19.746Z,2.72
2023-07-31T21:46:22.048Z,2.90
2023-07-31T21:51:24.774Z,3.00
2023-07-31T21:56:27.311Z,3.03
2023-07-31T22:01:29.503Z,2.28
2023-07-31T22:06:31.682Z,2.70
2023-07-31T22:11:33.912Z,3.28
2023-07-31T22:16:36.540Z,2.80
2023-07-31T22:21:39.282Z,2.78
2023-07-31T22:26:42.735Z,2.80
2023-07-31T22:31:45.301Z,2.72
2023-07-31T22:36:47.490Z,2.80
2023-07-31T22:41:52.923Z,2.92
2023-07-31T22:46:55.925Z,3.10
2023-07-31T22:51:58.057Z,2.92
2023-07-31T22:57:00.456Z,2.33
2023-07-31T23:02:02.953Z,2.88
2023-07-31T23:07:05.400Z,3.03
2023-07-31T23:12:07.851Z,2.83
2023-07-31T23:17:10.069Z,2.70
2023-07-31T23:22:12.512Z,2.45
2023-07-31T23:27:14.662Z,2.38
2023-07-31T23:32:19.083Z,2.28
2023-07-31T23:37:21.242Z,2.60
2023-07-31T23:42:23.531Z,2.45
2023-07-31T23:47:25.755Z,2.80
2023-07-31T23:52:28.208Z,2.83
2023-07-31T23:57:31.015Z,2.92
